sensor_id;sensor_type;location;lat;lon;timestamp;P1;durP1;ratioP1;P2;durP2;ratioP2
21114;SDS011;10715;48.546;9.896;2022-12-18T00:01:41;45.03;;;15.60;;
21114;SDS011;10715;48.546;9.896;2022-12-18T00:04:07;46.87;;;17.40;;
21114;SDS011;10715;48.546;9.896;2022-12-18T00:06:43;47.78;;;16.83;;
21114;SDS011;10715;48.546;9.896;2022-12-18T00:09:11;62.75;;;19.58;;
21114;SDS011;10715;48.546;9.896;2022-12-18T00:11:37;42.35;;;17.45;;
21114;SDS011;10715;48.546;9.896;2022-12-18T00:14:03;41.17;;;17.03;;
21114;SDS011;10715;48.546;9.896;2022-12-18T00:16:29;44.77;;;15.97;;
21114;SDS011;10715;48.546;9.896;2022-12-18T00:18:58;43.60;;;15.20;;
21114;SDS011;10715;48.546;9.896;2022-12-18T00:21:25;42.08;;;14.85;;
21114;SDS011;10715;48.546;9.896;2022-12-18T00:23:52;47.97;;;18.13;;
21114;SDS011;10715;48.546;9.896;2022-12-18T00:26:19;42.60;;;15.20;;
21114;SDS011;10715;48.546;9.896;2022-12-18T00:28:47;38.80;;;15.63;;
21114;SDS011;10715;48.546;9.896;2022-12-18T00:31:14;49.83;;;18.08;;
21114;SDS011;10715;48.546;9.896;2022-12-18T00:33:41;47.83;;;15.60;;
21114;SDS011;10715;48.546;9.896;2022-12-18T00:36:09;39.03;;;14.98;;
21114;SDS011;10715;48.546;9.896;2022-12-18T00:38:37;39.33;;;14.00;;
21114;SDS011;10715;48.546;9.896;2022-12-18T00:41:03;59.30;;;16.23;;
21114;SDS011;10715;48.546;9.896;2022-12-18T00:43:29;41.00;;;18.20;;
21114;SDS011;10715;48.546;9.896;2022-12-18T00:45:55;43.50;;;16.73;;
21114;SDS011;10715;48.546;9.896;2022-12-18T00:48:21;53.47;;;15.33;;
21114;SDS011;10715;48.546;9.896;2022-12-18T00:50:47;50.30;;;15.93;;
21114;SDS011;10715;48.546;9.896;2022-12-18T00:53:14;50.00;;;17.73;;
21114;SDS011;10715;48.546;9.896;2022-12-18T00:55:40;28.53;;;15.40;;
21114;SDS011;10715;48.546;9.896;2022-12-18T00:58:06;37.28;;;15.75;;
21114;SDS011;10715;48.546;9.896;2022-12-18T01:00:32;60.33;;;17.42;;
21114;SDS011;10715;48.546;9.896;2022-12-18T01:02:58;53.30;;;17.03;;
21114;SDS011;10715;48.546;9.896;2022-12-18T01:05:23;29.40;;;14.73;;
21114;SDS011;10715;48.546;9.896;2022-12-18T01:07:49;40.97;;;16.57;;
21114;SDS011;10715;48.546;9.896;2022-12-18T01:10:15;40.93;;;15.73;;
21114;SDS011;10715;48.546;9.896;2022-12-18T01:12:41;53.53;;;18.37;;
21114;SDS011;10715;48.546;9.896;2022-12-18T01:15:07;34.63;;;13.70;;
21114;SDS011;10715;48.546;9.896;2022-12-18T01:17:34;48.78;;;16.70;;
21114;SDS011;10715;48.546;9.896;2022-12-18T01:20:00;59.27;;;18.00;;
21114;SDS011;10715;48.546;9.896;2022-12-18T01:22:25;44.50;;;18.10;;
21114;SDS011;10715;48.546;9.896;2022-12-18T01:24:51;53.53;;;17.77;;
21114;SDS011;10715;48.546;9.896;2022-12-18T01:27:17;41.13;;;16.50;;
21114;SDS011;10715;48.546;9.896;2022-12-18T01:29:43;40.53;;;16.40;;
21114;SDS011;10715;48.546;9.896;2022-12-18T01:32:09;46.13;;;19.43;;
21114;SDS011;10715;48.546;9.896;2022-12-18T01:34:35;55.87;;;16.37;;
21114;SDS011;10715;48.546;9.896;2022-12-18T01:37:05;62.40;;;19.70;;
21114;SDS011;10715;48.546;9.896;2022-12-18T01:39:31;41.17;;;15.30;;
21114;SDS011;10715;48.546;9.896;2022-12-18T01:41:58;46.92;;;14.73;;
21114;SDS011;10715;48.546;9.896;2022-12-18T01:49:55;46.08;;;13.85;;
21114;SDS011;10715;48.546;9.896;2022-12-18T01:52:23;45.65;;;15.65;;
21114;SDS011;10715;48.546;9.896;2022-12-18T01:54:53;44.28;;;16.38;;
21114;SDS011;10715;48.546;9.896;2022-12-18T01:57:20;34.35;;;15.55;;
21114;SDS011;10715;48.546;9.896;2022-12-18T01:59:47;54.00;;;17.30;;
21114;SDS011;10715;48.546;9.896;2022-12-18T02:02:18;58.25;;;18.52;;
21114;SDS011;10715;48.546;9.896;2022-12-18T02:04:45;48.22;;;16.40;;
21114;SDS011;10715;48.546;9.896;2022-12-18T02:10:07;43.08;;;18.35;;
21114;SDS011;10715;48.546;9.896;2022-12-18T02:12:56;44.05;;;14.95;;
21114;SDS011;10715;48.546;9.896;2022-12-18T02:20:45;42.30;;;16.27;;
21114;SDS011;10715;48.546;9.896;2022-12-18T02:26:15;51.05;;;16.40;;
21114;SDS011;10715;48.546;9.896;2022-12-18T02:29:05;49.22;;;13.93;;
21114;SDS011;10715;48.546;9.896;2022-12-18T02:31:39;89.63;;;19.00;;
21114;SDS011;10715;48.546;9.896;2022-12-18T02:34:10;45.70;;;15.30;;
21114;SDS011;10715;48.546;9.896;2022-12-18T02:36:38;56.80;;;17.20;;
21114;SDS011;10715;48.546;9.896;2022-12-18T02:39:07;47.43;;;17.70;;
21114;SDS011;10715;48.546;9.896;2022-12-18T02:41:35;64.45;;;20.67;;
21114;SDS011;10715;48.546;9.896;2022-12-18T02:44:06;73.40;;;17.50;;
21114;SDS011;10715;48.546;9.896;2022-12-18T02:49:06;47.05;;;16.55;;
21114;SDS011;10715;48.546;9.896;2022-12-18T02:51:50;65.18;;;19.13;;
21114;SDS011;10715;48.546;9.896;2022-12-18T02:57:02;59.53;;;17.35;;
21114;SDS011;10715;48.546;9.896;2022-12-18T02:59:38;37.37;;;14.47;;
21114;SDS011;10715;48.546;9.896;2022-12-18T03:02:27;56.20;;;15.70;;
21114;SDS011;10715;48.546;9.896;2022-12-18T03:07:41;51.57;;;16.00;;
21114;SDS011;10715;48.546;9.896;2022-12-18T03:10:14;37.22;;;16.38;;
21114;SDS011;10715;48.546;9.896;2022-12-18T03:12:46;40.53;;;18.15;;
21114;SDS011;10715;48.546;9.896;2022-12-18T03:15:19;53.72;;;18.52;;
21114;SDS011;10715;48.546;9.896;2022-12-18T03:17:52;61.92;;;20.85;;
21114;SDS011;10715;48.546;9.896;2022-12-18T03:20:24;73.50;;;19.02;;
21114;SDS011;10715;48.546;9.896;2022-12-18T03:22:55;79.57;;;20.03;;
21114;SDS011;10715;48.546;9.896;2022-12-18T03:25:25;58.63;;;18.92;;
21114;SDS011;10715;48.546;9.896;2022-12-18T03:27:53;53.73;;;18.33;;
21114;SDS011;10715;48.546;9.896;2022-12-18T03:30:22;47.47;;;18.20;;
21114;SDS011;10715;48.546;9.896;2022-12-18T03:35:49;55.53;;;18.38;;
21114;SDS011;10715;48.546;9.896;2022-12-18T03:38:15;46.92;;;18.05;;
21114;SDS011;10715;48.546;9.896;2022-12-18T03:40:43;47.17;;;18.53;;
21114;SDS011;10715;48.546;9.896;2022-12-18T03:43:43;54.33;;;18.97;;
21114;SDS011;10715;48.546;9.896;2022-12-18T03:46:23;80.30;;;22.80;;
21114;SDS011;10715;48.546;9.896;2022-12-18T03:49:01;56.63;;;18.80;;
21114;SDS011;10715;48.546;9.896;2022-12-18T03:51:42;43.95;;;17.33;;
21114;SDS011;10715;48.546;9.896;2022-12-18T03:54:17;60.95;;;21.58;;
21114;SDS011;10715;48.546;9.896;2022-12-18T03:56:48;59.97;;;20.80;;
21114;SDS011;10715;48.546;9.896;2022-12-18T03:59:21;47.90;;;18.85;;
21114;SDS011;10715;48.546;9.896;2022-12-18T04:01:49;62.80;;;23.43;;
21114;SDS011;10715;48.546;9.896;2022-12-18T04:04:17;63.85;;;20.90;;
21114;SDS011;10715;48.546;9.896;2022-12-18T04:06:45;67.60;;;21.75;;
21114;SDS011;10715;48.546;9.896;2022-12-18T04:09:13;55.47;;;17.80;;
21114;SDS011;10715;48.546;9.896;2022-12-18T04:11:40;80.93;;;18.77;;
21114;SDS011;10715;48.546;9.896;2022-12-18T04:14:08;71.23;;;23.30;;
21114;SDS011;10715;48.546;9.896;2022-12-18T04:16:34;59.65;;;19.50;;
21114;SDS011;10715;48.546;9.896;2022-12-18T04:19:00;46.37;;;19.07;;
21114;SDS011;10715;48.546;9.896;2022-12-18T04:21:26;65.03;;;20.13;;
21114;SDS011;10715;48.546;9.896;2022-12-18T04:23:52;71.97;;;20.60;;
21114;SDS011;10715;48.546;9.896;2022-12-18T04:26:17;52.43;;;16.67;;
21114;SDS011;10715;48.546;9.896;2022-12-18T04:28:43;74.20;;;21.70;;
21114;SDS011;10715;48.546;9.896;2022-12-18T04:31:09;65.17;;;21.07;;
21114;SDS011;10715;48.546;9.896;2022-12-18T04:33:35;63.33;;;17.80;;
21114;SDS011;10715;48.546;9.896;2022-12-18T04:36:00;108.20;;;22.53;;
21114;SDS011;10715;48.546;9.896;2022-12-18T04:38:26;63.90;;;20.07;;
21114;SDS011;10715;48.546;9.896;2022-12-18T04:40:52;51.87;;;19.30;;
21114;SDS011;10715;48.546;9.896;2022-12-18T04:43:17;52.83;;;19.53;;
21114;SDS011;10715;48.546;9.896;2022-12-18T04:45:43;41.57;;;16.57;;
21114;SDS011;10715;48.546;9.896;2022-12-18T04:48:09;62.30;;;19.27;;
21114;SDS011;10715;48.546;9.896;2022-12-18T04:50:35;46.40;;;16.20;;
21114;SDS011;10715;48.546;9.896;2022-12-18T04:53:00;66.77;;;17.17;;
21114;SDS011;10715;48.546;9.896;2022-12-18T04:55:26;53.57;;;18.83;;
21114;SDS011;10715;48.546;9.896;2022-12-18T04:57:52;65.45;;;20.05;;
21114;SDS011;10715;48.546;9.896;2022-12-18T05:00:18;48.40;;;16.27;;
21114;SDS011;10715;48.546;9.896;2022-12-18T05:02:44;69.37;;;20.57;;
21114;SDS011;10715;48.546;9.896;2022-12-18T05:05:10;73.70;;;22.87;;
21114;SDS011;10715;48.546;9.896;2022-12-18T05:07:36;65.67;;;19.70;;
21114;SDS011;10715;48.546;9.896;2022-12-18T05:10:02;80.57;;;23.70;;
21114;SDS011;10715;48.546;9.896;2022-12-18T05:12:30;60.07;;;20.00;;
21114;SDS011;10715;48.546;9.896;2022-12-18T05:14:56;62.20;;;24.30;;
21114;SDS011;10715;48.546;9.896;2022-12-18T05:17:22;46.07;;;19.73;;
21114;SDS011;10715;48.546;9.896;2022-12-18T05:19:48;66.83;;;22.67;;
21114;SDS011;10715;48.546;9.896;2022-12-18T05:22:13;56.43;;;22.23;;
21114;SDS011;10715;48.546;9.896;2022-12-18T05:24:39;73.77;;;27.40;;
21114;SDS011;10715;48.546;9.896;2022-12-18T05:27:05;74.70;;;22.50;;
21114;SDS011;10715;48.546;9.896;2022-12-18T05:29:30;63.60;;;24.60;;
21114;SDS011;10715;48.546;9.896;2022-12-18T05:31:56;77.97;;;23.23;;
21114;SDS011;10715;48.546;9.896;2022-12-18T05:34:22;61.57;;;24.20;;
21114;SDS011;10715;48.546;9.896;2022-12-18T05:36:48;80.67;;;24.50;;
21114;SDS011;10715;48.546;9.896;2022-12-18T05:39:13;70.23;;;23.67;;
21114;SDS011;10715;48.546;9.896;2022-12-18T05:41:39;70.83;;;23.53;;
21114;SDS011;10715;48.546;9.896;2022-12-18T05:44:05;65.53;;;22.57;;
21114;SDS011;10715;48.546;9.896;2022-12-18T05:46:30;73.87;;;24.07;;
21114;SDS011;10715;48.546;9.896;2022-12-18T05:48:58;80.10;;;22.13;;
21114;SDS011;10715;48.546;9.896;2022-12-18T05:51:25;87.50;;;25.35;;
21114;SDS011;10715;48.546;9.896;2022-12-18T05:53:51;67.87;;;22.57;;
21114;SDS011;10715;48.546;9.896;2022-12-18T05:56:19;61.00;;;22.97;;
21114;SDS011;10715;48.546;9.896;2022-12-18T05:58:46;79.30;;;26.45;;
21114;SDS011;10715;48.546;9.896;2022-12-18T06:01:16;78.03;;;23.77;;
21114;SDS011;10715;48.546;9.896;2022-12-18T06:03:43;78.45;;;26.30;;
21114;SDS011;10715;48.546;9.896;2022-12-18T06:06:20;71.20;;;24.90;;
21114;SDS011;10715;48.546;9.896;2022-12-18T06:08:48;63.73;;;22.90;;
21114;SDS011;10715;48.546;9.896;2022-12-18T06:11:15;83.07;;;28.45;;
21114;SDS011;10715;48.546;9.896;2022-12-18T06:13:43;72.65;;;24.90;;
21114;SDS011;10715;48.546;9.896;2022-12-18T06:16:08;82.97;;;23.90;;
21114;SDS011;10715;48.546;9.896;2022-12-18T06:18:34;95.27;;;23.80;;
21114;SDS011;10715;48.546;9.896;2022-12-18T06:21:00;83.43;;;28.00;;
21114;SDS011;10715;48.546;9.896;2022-12-18T06:23:25;86.53;;;30.57;;
21114;SDS011;10715;48.546;9.896;2022-12-18T06:25:52;81.93;;;28.40;;
21114;SDS011;10715;48.546;9.896;2022-12-18T06:28:17;79.50;;;25.77;;
21114;SDS011;10715;48.546;9.896;2022-12-18T06:30:44;70.67;;;24.93;;
21114;SDS011;10715;48.546;9.896;2022-12-18T06:33:10;105.23;;;29.73;;
21114;SDS011;10715;48.546;9.896;2022-12-18T06:35:35;100.93;;;28.60;;
21114;SDS011;10715;48.546;9.896;2022-12-18T06:38:02;84.43;;;26.87;;
21114;SDS011;10715;48.546;9.896;2022-12-18T06:40:28;81.82;;;27.58;;
21114;SDS011;10715;48.546;9.896;2022-12-18T06:42:53;74.90;;;28.83;;
21114;SDS011;10715;48.546;9.896;2022-12-18T06:45:19;91.23;;;30.83;;
21114;SDS011;10715;48.546;9.896;2022-12-18T06:47:45;68.97;;;28.37;;
21114;SDS011;10715;48.546;9.896;2022-12-18T06:50:11;89.23;;;25.27;;
21114;SDS011;10715;48.546;9.896;2022-12-18T06:52:37;83.85;;;30.67;;
21114;SDS011;10715;48.546;9.896;2022-12-18T06:55:05;72.07;;;25.33;;
21114;SDS011;10715;48.546;9.896;2022-12-18T06:57:35;98.83;;;28.60;;
21114;SDS011;10715;48.546;9.896;2022-12-18T07:00:01;81.43;;;25.33;;
21114;SDS011;10715;48.546;9.896;2022-12-18T07:02:27;71.10;;;26.27;;
21114;SDS011;10715;48.546;9.896;2022-12-18T07:04:53;85.53;;;26.43;;
21114;SDS011;10715;48.546;9.896;2022-12-18T07:07:19;92.80;;;29.00;;
21114;SDS011;10715;48.546;9.896;2022-12-18T07:09:45;83.73;;;25.90;;
21114;SDS011;10715;48.546;9.896;2022-12-18T07:12:10;72.10;;;27.83;;
21114;SDS011;10715;48.546;9.896;2022-12-18T07:14:36;76.27;;;26.10;;
21114;SDS011;10715;48.546;9.896;2022-12-18T07:17:01;73.80;;;24.17;;
21114;SDS011;10715;48.546;9.896;2022-12-18T07:19:27;97.50;;;28.80;;
21114;SDS011;10715;48.546;9.896;2022-12-18T07:21:54;98.13;;;30.50;;
21114;SDS011;10715;48.546;9.896;2022-12-18T07:24:19;97.30;;;25.20;;
21114;SDS011;10715;48.546;9.896;2022-12-18T07:26:46;87.27;;;25.20;;
21114;SDS011;10715;48.546;9.896;2022-12-18T07:29:12;95.95;;;30.38;;
21114;SDS011;10715;48.546;9.896;2022-12-18T07:31:38;71.97;;;24.70;;
21114;SDS011;10715;48.546;9.896;2022-12-18T07:34:05;61.95;;;23.08;;
21114;SDS011;10715;48.546;9.896;2022-12-18T07:36:34;86.60;;;23.20;;
21114;SDS011;10715;48.546;9.896;2022-12-18T07:39:00;80.97;;;24.37;;
21114;SDS011;10715;48.546;9.896;2022-12-18T07:41:25;71.47;;;23.23;;
21114;SDS011;10715;48.546;9.896;2022-12-18T07:43:51;75.50;;;26.40;;
21114;SDS011;10715;48.546;9.896;2022-12-18T07:46:17;78.47;;;26.70;;
21114;SDS011;10715;48.546;9.896;2022-12-18T07:48:43;76.40;;;26.98;;
21114;SDS011;10715;48.546;9.896;2022-12-18T07:51:09;75.47;;;23.97;;
21114;SDS011;10715;48.546;9.896;2022-12-18T07:53:35;74.50;;;25.00;;
21114;SDS011;10715;48.546;9.896;2022-12-18T07:56:03;71.25;;;21.85;;
21114;SDS011;10715;48.546;9.896;2022-12-18T07:58:31;80.40;;;24.95;;
21114;SDS011;10715;48.546;9.896;2022-12-18T08:01:05;74.37;;;23.00;;
21114;SDS011;10715;48.546;9.896;2022-12-18T08:03:32;98.90;;;25.80;;
21114;SDS011;10715;48.546;9.896;2022-12-18T08:06:01;83.73;;;23.93;;
21114;SDS011;10715;48.546;9.896;2022-12-18T08:08:30;81.20;;;23.07;;
21114;SDS011;10715;48.546;9.896;2022-12-18T08:10:56;75.17;;;27.53;;
21114;SDS011;10715;48.546;9.896;2022-12-18T08:13:23;70.73;;;22.23;;
21114;SDS011;10715;48.546;9.896;2022-12-18T08:15:58;71.73;;;23.67;;
21114;SDS011;10715;48.546;9.896;2022-12-18T08:18:25;68.60;;;21.27;;
21114;SDS011;10715;48.546;9.896;2022-12-18T08:20:50;58.53;;;20.27;;
21114;SDS011;10715;48.546;9.896;2022-12-18T08:23:16;60.50;;;21.47;;
21114;SDS011;10715;48.546;9.896;2022-12-18T08:25:42;49.53;;;18.10;;
21114;SDS011;10715;48.546;9.896;2022-12-18T08:28:09;65.33;;;22.60;;
21114;SDS011;10715;48.546;9.896;2022-12-18T08:30:35;58.57;;;22.43;;
21114;SDS011;10715;48.546;9.896;2022-12-18T08:33:01;58.10;;;21.63;;
21114;SDS011;10715;48.546;9.896;2022-12-18T08:35:27;73.53;;;24.40;;
21114;SDS011;10715;48.546;9.896;2022-12-18T08:37:53;50.43;;;18.37;;
21114;SDS011;10715;48.546;9.896;2022-12-18T08:40:18;54.43;;;18.37;;
21114;SDS011;10715;48.546;9.896;2022-12-18T08:42:44;57.67;;;21.73;;
21114;SDS011;10715;48.546;9.896;2022-12-18T08:45:28;53.77;;;16.53;;
21114;SDS011;10715;48.546;9.896;2022-12-18T08:47:54;47.43;;;16.13;;
21114;SDS011;10715;48.546;9.896;2022-12-18T08:50:20;44.30;;;14.60;;
21114;SDS011;10715;48.546;9.896;2022-12-18T08:52:46;58.00;;;19.80;;
21114;SDS011;10715;48.546;9.896;2022-12-18T08:55:11;54.93;;;16.67;;
21114;SDS011;10715;48.546;9.896;2022-12-18T08:57:37;58.37;;;21.90;;
21114;SDS011;10715;48.546;9.896;2022-12-18T09:00:03;49.40;;;18.90;;
21114;SDS011;10715;48.546;9.896;2022-12-18T09:02:29;64.57;;;20.35;;
21114;SDS011;10715;48.546;9.896;2022-12-18T09:04:55;65.27;;;22.37;;
21114;SDS011;10715;48.546;9.896;2022-12-18T09:07:21;40.17;;;15.27;;
21114;SDS011;10715;48.546;9.896;2022-12-18T09:09:46;46.70;;;16.50;;
21114;SDS011;10715;48.546;9.896;2022-12-18T09:12:12;42.43;;;15.40;;
21114;SDS011;10715;48.546;9.896;2022-12-18T09:14:38;57.47;;;16.40;;
21114;SDS011;10715;48.546;9.896;2022-12-18T09:17:03;31.43;;;12.73;;
21114;SDS011;10715;48.546;9.896;2022-12-18T09:19:29;44.47;;;16.53;;
21114;SDS011;10715;48.546;9.896;2022-12-18T09:21:55;54.80;;;18.30;;
21114;SDS011;10715;48.546;9.896;2022-12-18T09:24:21;53.37;;;15.70;;
21114;SDS011;10715;48.546;9.896;2022-12-18T09:26:46;44.83;;;14.50;;
21114;SDS011;10715;48.546;9.896;2022-12-18T09:29:12;58.73;;;18.07;;
21114;SDS011;10715;48.546;9.896;2022-12-18T09:31:39;42.80;;;16.13;;
21114;SDS011;10715;48.546;9.896;2022-12-18T09:34:05;56.93;;;19.20;;
21114;SDS011;10715;48.546;9.896;2022-12-18T09:36:31;41.37;;;15.40;;
21114;SDS011;10715;48.546;9.896;2022-12-18T09:38:56;50.43;;;19.70;;
21114;SDS011;10715;48.546;9.896;2022-12-18T09:43:49;49.40;;;15.30;;
21114;SDS011;10715;48.546;9.896;2022-12-18T09:46:23;39.40;;;16.77;;
21114;SDS011;10715;48.546;9.896;2022-12-18T09:48:55;46.47;;;14.53;;
21114;SDS011;10715;48.546;9.896;2022-12-18T09:51:37;38.93;;;15.53;;
21114;SDS011;10715;48.546;9.896;2022-12-18T09:54:16;44.87;;;16.10;;
21114;SDS011;10715;48.546;9.896;2022-12-18T09:56:46;38.00;;;15.23;;
21114;SDS011;10715;48.546;9.896;2022-12-18T10:01:52;39.50;;;14.73;;
21114;SDS011;10715;48.546;9.896;2022-12-18T10:04:18;42.80;;;15.43;;
21114;SDS011;10715;48.546;9.896;2022-12-18T10:07:02;50.60;;;16.47;;
21114;SDS011;10715;48.546;9.896;2022-12-18T10:09:50;35.77;;;14.13;;
21114;SDS011;10715;48.546;9.896;2022-12-18T10:18:11;38.27;;;16.73;;
21114;SDS011;10715;48.546;9.896;2022-12-18T10:20:46;41.70;;;17.23;;
21114;SDS011;10715;48.546;9.896;2022-12-18T10:28:21;41.20;;;13.37;;
21114;SDS011;10715;48.546;9.896;2022-12-18T10:30:48;44.97;;;15.10;;
21114;SDS011;10715;48.546;9.896;2022-12-18T10:33:23;44.00;;;14.97;;
21114;SDS011;10715;48.546;9.896;2022-12-18T10:35:52;40.57;;;15.33;;
21114;SDS011;10715;48.546;9.896;2022-12-18T10:40:54;36.00;;;14.83;;
21114;SDS011;10715;48.546;9.896;2022-12-18T10:43:24;43.60;;;16.50;;
21114;SDS011;10715;48.546;9.896;2022-12-18T10:51:03;40.33;;;14.03;;
21114;SDS011;10715;48.546;9.896;2022-12-18T10:53:30;55.50;;;17.20;;
21114;SDS011;10715;48.546;9.896;2022-12-18T10:55:58;36.23;;;14.43;;
21114;SDS011;10715;48.546;9.896;2022-12-18T10:58:28;42.33;;;17.40;;
21114;SDS011;10715;48.546;9.896;2022-12-18T11:03:37;47.87;;;15.87;;
21114;SDS011;10715;48.546;9.896;2022-12-18T11:06:12;42.47;;;15.70;;
21114;SDS011;10715;48.546;9.896;2022-12-18T11:08:40;44.17;;;14.67;;
21114;SDS011;10715;48.546;9.896;2022-12-18T11:11:21;34.70;;;13.97;;
21114;SDS011;10715;48.546;9.896;2022-12-18T11:13:59;36.10;;;15.03;;
21114;SDS011;10715;48.546;9.896;2022-12-18T11:16:36;41.87;;;16.60;;
21114;SDS011;10715;48.546;9.896;2022-12-18T11:21:56;51.83;;;14.57;;
21114;SDS011;10715;48.546;9.896;2022-12-18T11:24:28;36.67;;;15.90;;
21114;SDS011;10715;48.546;9.896;2022-12-18T11:27:02;39.40;;;15.43;;
21114;SDS011;10715;48.546;9.896;2022-12-18T11:29:40;42.23;;;14.90;;
21114;SDS011;10715;48.546;9.896;2022-12-18T11:35:02;42.47;;;14.13;;
21114;SDS011;10715;48.546;9.896;2022-12-18T11:37:33;40.43;;;16.67;;
21114;SDS011;10715;48.546;9.896;2022-12-18T11:40:22;38.17;;;16.40;;
21114;SDS011;10715;48.546;9.896;2022-12-18T11:45:52;34.10;;;14.67;;
21114;SDS011;10715;48.546;9.896;2022-12-18T11:48:38;41.63;;;14.97;;
21114;SDS011;10715;48.546;9.896;2022-12-18T11:51:11;42.43;;;16.53;;
21114;SDS011;10715;48.546;9.896;2022-12-18T11:53:47;39.63;;;14.03;;
21114;SDS011;10715;48.546;9.896;2022-12-18T11:59:02;41.17;;;13.43;;
21114;SDS011;10715;48.546;9.896;2022-12-18T12:07:23;31.67;;;11.27;;
21114;SDS011;10715;48.546;9.896;2022-12-18T12:10:15;42.90;;;17.17;;
21114;SDS011;10715;48.546;9.896;2022-12-18T12:12:59;34.20;;;13.73;;
21114;SDS011;10715;48.546;9.896;2022-12-18T12:40:04;34.40;;;12.90;;
21114;SDS011;10715;48.546;9.896;2022-12-18T12:42:41;40.30;;;15.17;;
21114;SDS011;10715;48.546;9.896;2022-12-18T12:45:44;42.30;;;16.37;;
21114;SDS011;10715;48.546;9.896;2022-12-18T12:48:21;42.53;;;16.53;;
21114;SDS011;10715;48.546;9.896;2022-12-18T12:50:50;37.93;;;12.30;;
21114;SDS011;10715;48.546;9.896;2022-12-18T12:53:21;38.43;;;13.90;;
21114;SDS011;10715;48.546;9.896;2022-12-18T12:55:52;38.97;;;15.63;;
21114;SDS011;10715;48.546;9.896;2022-12-18T13:09:15;48.70;;;15.77;;
21114;SDS011;10715;48.546;9.896;2022-12-18T13:11:44;37.67;;;16.23;;
21114;SDS011;10715;48.546;9.896;2022-12-18T13:17:22;36.70;;;13.17;;
21114;SDS011;10715;48.546;9.896;2022-12-18T13:19:42;37.50;;;14.10;;
21114;SDS011;10715;48.546;9.896;2022-12-18T13:22:30;30.80;;;12.80;;
21114;SDS011;10715;48.546;9.896;2022-12-18T13:24:56;35.80;;;13.83;;
21114;SDS011;10715;48.546;9.896;2022-12-18T13:40:59;35.63;;;13.23;;
21114;SDS011;10715;48.546;9.896;2022-12-18T13:43:28;39.00;;;14.50;;
21114;SDS011;10715;48.546;9.896;2022-12-18T13:46:05;44.13;;;15.17;;
21114;SDS011;10715;48.546;9.896;2022-12-18T13:51:22;27.13;;;13.03;;
21114;SDS011;10715;48.546;9.896;2022-12-18T13:53:50;42.10;;;17.87;;
21114;SDS011;10715;48.546;9.896;2022-12-18T13:56:26;38.20;;;13.67;;
21114;SDS011;10715;48.546;9.896;2022-12-18T14:01:47;34.77;;;12.93;;
21114;SDS011;10715;48.546;9.896;2022-12-18T14:04:30;35.00;;;13.90;;
21114;SDS011;10715;48.546;9.896;2022-12-18T14:07:04;40.60;;;13.70;;
21114;SDS011;10715;48.546;9.896;2022-12-18T14:09:57;29.03;;;14.17;;
21114;SDS011;10715;48.546;9.896;2022-12-18T14:12:32;29.10;;;12.20;;
21114;SDS011;10715;48.546;9.896;2022-12-18T14:18:01;25.97;;;13.77;;
21114;SDS011;10715;48.546;9.896;2022-12-18T14:20:29;30.13;;;13.90;;
21114;SDS011;10715;48.546;9.896;2022-12-18T14:22:57;37.40;;;12.97;;
21114;SDS011;10715;48.546;9.896;2022-12-18T14:25:24;36.37;;;13.00;;
21114;SDS011;10715;48.546;9.896;2022-12-18T14:27:52;28.10;;;10.37;;
21114;SDS011;10715;48.546;9.896;2022-12-18T14:30:43;24.37;;;10.97;;
21114;SDS011;10715;48.546;9.896;2022-12-18T14:33:15;23.17;;;11.53;;
21114;SDS011;10715;48.546;9.896;2022-12-18T14:38:28;29.77;;;12.40;;
21114;SDS011;10715;48.546;9.896;2022-12-18T14:41:02;39.53;;;12.85;;
21114;SDS011;10715;48.546;9.896;2022-12-18T14:43:49;26.47;;;12.83;;
21114;SDS011;10715;48.546;9.896;2022-12-18T14:48:57;45.33;;;12.37;;
21114;SDS011;10715;48.546;9.896;2022-12-18T14:51:26;41.00;;;14.43;;
21114;SDS011;10715;48.546;9.896;2022-12-18T14:53:55;27.42;;;12.05;;
21114;SDS011;10715;48.546;9.896;2022-12-18T14:56:27;36.33;;;15.33;;
21114;SDS011;10715;48.546;9.896;2022-12-18T14:59:04;35.50;;;13.10;;
21114;SDS011;10715;48.546;9.896;2022-12-18T15:04:39;21.23;;;10.60;;
21114;SDS011;10715;48.546;9.896;2022-12-18T15:07:12;33.13;;;12.88;;
21114;SDS011;10715;48.546;9.896;2022-12-18T15:09:39;39.20;;;13.27;;
21114;SDS011;10715;48.546;9.896;2022-12-18T15:12:22;33.40;;;13.40;;
21114;SDS011;10715;48.546;9.896;2022-12-18T15:15:43;25.60;;;11.63;;
21114;SDS011;10715;48.546;9.896;2022-12-18T15:20:58;36.83;;;14.20;;
21114;SDS011;10715;48.546;9.896;2022-12-18T15:26:09;46.23;;;13.97;;
21114;SDS011;10715;48.546;9.896;2022-12-18T15:28:53;38.07;;;14.13;;
21114;SDS011;10715;48.546;9.896;2022-12-18T15:36:18;38.00;;;14.20;;
21114;SDS011;10715;48.546;9.896;2022-12-18T15:38:46;30.13;;;12.20;;
21114;SDS011;10715;48.546;9.896;2022-12-18T15:41:16;27.17;;;13.33;;
21114;SDS011;10715;48.546;9.896;2022-12-18T15:43:44;47.73;;;15.50;;
21114;SDS011;10715;48.546;9.896;2022-12-18T15:46:16;55.63;;;16.07;;
21114;SDS011;10715;48.546;9.896;2022-12-18T15:48:47;36.30;;;15.70;;
21114;SDS011;10715;48.546;9.896;2022-12-18T15:53:41;32.15;;;13.48;;
21114;SDS011;10715;48.546;9.896;2022-12-18T15:56:11;54.10;;;20.00;;
21114;SDS011;10715;48.546;9.896;2022-12-18T15:58:56;48.03;;;16.43;;
21114;SDS011;10715;48.546;9.896;2022-12-18T16:01:23;52.42;;;16.00;;
21114;SDS011;10715;48.546;9.896;2022-12-18T16:03:50;41.00;;;18.00;;
21114;SDS011;10715;48.546;9.896;2022-12-18T16:06:16;44.63;;;14.73;;
21114;SDS011;10715;48.546;9.896;2022-12-18T16:08:42;31.43;;;13.57;;
21114;SDS011;10715;48.546;9.896;2022-12-18T16:11:21;51.67;;;18.80;;
21114;SDS011;10715;48.546;9.896;2022-12-18T16:14:19;34.42;;;15.60;;
21114;SDS011;10715;48.546;9.896;2022-12-18T16:16:52;32.22;;;11.98;;
21114;SDS011;10715;48.546;9.896;2022-12-18T16:19:19;44.43;;;15.83;;
21114;SDS011;10715;48.546;9.896;2022-12-18T16:21:46;37.35;;;12.57;;
21114;SDS011;10715;48.546;9.896;2022-12-18T16:24:24;35.23;;;14.93;;
21114;SDS011;10715;48.546;9.896;2022-12-18T16:26:51;40.55;;;15.48;;
21114;SDS011;10715;48.546;9.896;2022-12-18T16:29:18;40.10;;;14.60;;
21114;SDS011;10715;48.546;9.896;2022-12-18T16:31:51;41.67;;;14.93;;
21114;SDS011;10715;48.546;9.896;2022-12-18T16:34:28;42.60;;;15.60;;
21114;SDS011;10715;48.546;9.896;2022-12-18T16:36:56;46.13;;;17.55;;
21114;SDS011;10715;48.546;9.896;2022-12-18T16:39:23;41.00;;;14.27;;
21114;SDS011;10715;48.546;9.896;2022-12-18T16:41:49;39.42;;;17.67;;
21114;SDS011;10715;48.546;9.896;2022-12-18T16:44:15;44.93;;;14.63;;
21114;SDS011;10715;48.546;9.896;2022-12-18T16:46:41;35.00;;;14.20;;
21114;SDS011;10715;48.546;9.896;2022-12-18T16:49:10;41.72;;;17.60;;
21114;SDS011;10715;48.546;9.896;2022-12-18T16:51:39;48.75;;;15.90;;
21114;SDS011;10715;48.546;9.896;2022-12-18T16:54:05;46.93;;;16.50;;
21114;SDS011;10715;48.546;9.896;2022-12-18T16:56:31;38.77;;;17.57;;
21114;SDS011;10715;48.546;9.896;2022-12-18T16:58:57;40.50;;;15.30;;
21114;SDS011;10715;48.546;9.896;2022-12-18T17:01:25;33.20;;;12.33;;
21114;SDS011;10715;48.546;9.896;2022-12-18T17:04:03;28.50;;;13.10;;
21114;SDS011;10715;48.546;9.896;2022-12-18T17:06:31;41.30;;;15.27;;
21114;SDS011;10715;48.546;9.896;2022-12-18T17:08:59;35.90;;;15.52;;